createdAt,value
2022-10-01T00:01:17.275Z,83.91
2022-10-01T00:03:44.376Z,86.35
2022-10-01T00:06:16.540Z,87.41
2022-10-01T00:08:46.898Z,88.73
2022-10-01T00:11:22.063Z,91.74
2022-10-01T00:13:49.653Z,95.81
2022-10-01T00:16:19.347Z,97.38
2022-10-01T00:18:47.234Z,100.00
2022-10-01T00:21:19.049Z,100.00
2022-10-01T00:23:46.350Z,100.00
2022-10-01T00:26:20.914Z,100.00
2022-10-01T00:28:52.518Z,100.00
2022-10-01T00:31:19.065Z,100.00
2022-10-01T00:33:45.549Z,100.00
2022-10-01T00:36:12.200Z,100.00
2022-10-01T00:38:40.265Z,100.00
2022-10-01T00:41:07.652Z,100.00
2022-10-01T00:43:37.743Z,100.00
2022-10-01T00:46:13.421Z,100.00
2022-10-01T00:49:07.084Z,100.00
2022-10-01T00:51:39.873Z,100.00
2022-10-01T00:54:15.258Z,100.00
2022-10-01T00:56:43.386Z,100.00
2022-10-01T00:59:12.091Z,100.00
2022-10-01T01:01:39.312Z,100.00
2022-10-01T01:04:16.306Z,100.00
2022-10-01T01:06:57.597Z,100.00
2022-10-01T01:09:55.644Z,100.00
2022-10-01T01:12:51.266Z,100.00
2022-10-01T01:15:34.527Z,100.00
2022-10-01T01:18:24.948Z,100.00
2022-10-01T01:21:00.502Z,100.00
2022-10-01T01:23:33.539Z,100.00
2022-10-01T01:26:24.656Z,100.00
2022-10-01T01:28:58.339Z,100.00
2022-10-01T01:31:32.921Z,100.00
2022-10-01T01:34:01.154Z,100.00
2022-10-01T01:36:37.007Z,100.00
2022-10-01T01:39:08.740Z,100.00
2022-10-01T01:41:40.798Z,100.00
2022-10-01T01:44:12.177Z,100.00
2022-10-01T01:46:44.147Z,100.00
2022-10-01T01:49:11.144Z,100.00
2022-10-01T01:51:51.116Z,100.00
2022-10-01T01:54:19.580Z,100.00
2022-10-01T01:56:46.552Z,100.00
2022-10-01T01:59:13.688Z,100.00
2022-10-01T02:01:42.455Z,100.00
2022-10-01T02:04:32.115Z,100.00
2022-10-01T02:07:20.373Z,100.00
2022-10-01T02:10:19.421Z,100.00
2022-10-01T02:13:01.482Z,100.00
2022-10-01T02:15:36.044Z,100.00
2022-10-01T02:18:22.113Z,100.00
2022-10-01T02:20:54.522Z,100.00
2022-10-01T02:23:37.932Z,100.00
2022-10-01T02:26:13.151Z,100.00
2022-10-01T02:28:42.380Z,100.00
2022-10-01T02:31:11.367Z,100.00
2022-10-01T02:33:39.895Z,100.00
2022-10-01T02:36:10.285Z,100.00
2022-10-01T02:38:40.984Z,100.00
2022-10-01T02:41:11.578Z,100.00
2022-10-01T02:43:47.076Z,100.00
2022-10-01T02:46:28.354Z,100.00
2022-10-01T02:48:56.822Z,100.00
2022-10-01T02:51:45.456Z,100.00
2022-10-01T02:54:51.015Z,100.00
2022-10-01T02:57:26.940Z,100.00
2022-10-01T03:00:03.154Z,100.00
2022-10-01T03:02:31.508Z,100.00
2022-10-01T03:04:59.110Z,100.00
2022-10-01T03:07:27.589Z,100.00
2022-10-01T03:09:54.388Z,100.00
2022-10-01T03:12:22.393Z,100.00
2022-10-01T03:14:49.611Z,100.00
2022-10-01T03:17:16.846Z,100.00
2022-10-01T03:19:43.677Z,100.00
2022-10-01T03:22:13.776Z,100.00
2022-10-01T03:24:40.381Z,100.00
2022-10-01T03:27:06.871Z,100.00
2022-10-01T03:29:33.385Z,100.00
2022-10-01T03:31:59.967Z,100.00
2022-10-01T03:34:26.622Z,100.00
2022-10-01T03:36:53.195Z,100.00
2022-10-01T03:39:19.921Z,100.00
2022-10-01T03:41:46.396Z,100.00
2022-10-01T03:44:12.999Z,100.00
2022-10-01T03:46:39.473Z,100.00
2022-10-01T03:49:06.225Z,100.00
2022-10-01T03:51:33.566Z,100.00
2022-10-01T03:54:00.244Z,100.00
2022-10-01T03:56:26.790Z,100.00
2022-10-01T03:58:53.288Z,100.00
2022-10-01T04:01:19.782Z,100.00
2022-10-01T04:03:46.533Z,100.00
2022-10-01T04:06:13.177Z,100.00
2022-10-01T04:08:39.741Z,100.00
2022-10-01T04:11:07.289Z,100.00
2022-10-01T04:13:34.585Z,100.00
2022-10-01T04:16:02.492Z,100.00
2022-10-01T04:18:29.346Z,100.00
2022-10-01T04:20:55.866Z,100.00
2022-10-01T04:23:22.632Z,100.00
2022-10-01T04:25:49.403Z,100.00
2022-10-01T04:28:16.635Z,100.00
2022-10-01T04:30:44.923Z,100.00
2022-10-01T04:33:16.651Z,100.00
2022-10-01T04:35:44.254Z,100.00
2022-10-01T04:38:16.545Z,100.00
2022-10-01T04:40:43.124Z,100.00
2022-10-01T04:43:11.228Z,100.00
2022-10-01T04:45:38.222Z,100.00
2022-10-01T04:48:05.375Z,100.00
2022-10-01T04:50:32.146Z,100.00
2022-10-01T04:52:58.682Z,100.00
2022-10-01T04:55:25.709Z,100.00
2022-10-01T04:57:52.254Z,100.00
2022-10-01T05:00:21.828Z,100.00
2022-10-01T05:02:49.776Z,100.00
2022-10-01T05:05:17.922Z,100.00
2022-10-01T05:07:45.389Z,100.00
2022-10-01T05:10:14.424Z,100.00
2022-10-01T05:12:41.528Z,100.00
2022-10-01T05:15:08.730Z,100.00
2022-10-01T05:17:35.921Z,100.00
2022-10-01T05:20:04.720Z,100.00
2022-10-01T05:22:32.004Z,100.00
2022-10-01T05:25:00.150Z,100.00
2022-10-01T05:27:27.571Z,100.00
2022-10-01T05:29:54.070Z,100.00
2022-10-01T05:32:20.634Z,100.00
2022-10-01T05:34:51.191Z,100.00
2022-10-01T05:37:19.970Z,100.00
2022-10-01T05:39:46.563Z,100.00
2022-10-01T05:42:13.046Z,100.00
2022-10-01T05:44:40.850Z,100.00
2022-10-01T05:47:07.681Z,100.00
2022-10-01T05:49:34.411Z,100.00
2022-10-01T05:52:01.216Z,100.00
2022-10-01T05:54:29.619Z,100.00
2022-10-01T05:56:59.128Z,100.00
2022-10-01T05:59:29.675Z,100.00
2022-10-01T06:01:58.174Z,100.00
2022-10-01T06:04:24.891Z,100.00
2022-10-01T06:06:53.523Z,100.00
2022-10-01T06:09:19.977Z,100.00
2022-10-01T06:11:48.950Z,100.00
2022-10-01T06:14:16.416Z,100.00
2022-10-01T06:16:43.054Z,100.00
2022-10-01T06:19:09.703Z,100.00
2022-10-01T06:21:36.549Z,100.00
2022-10-01T06:24:03.681Z,100.00
2022-10-01T06:26:30.245Z,100.00
2022-10-01T06:28:56.869Z,100.00
2022-10-01T06:31:23.419Z,100.00
2022-10-01T06:33:49.958Z,100.00
2022-10-01T06:36:16.588Z,100.00
2022-10-01T06:38:43.282Z,100.00
2022-10-01T06:41:09.899Z,100.00
2022-10-01T06:43:36.490Z,100.00
2022-10-01T06:46:05.046Z,100.00
2022-10-01T06:48:32.528Z,100.00
2022-10-01T06:50:59.510Z,100.00
2022-10-01T06:53:27.656Z,100.00
2022-10-01T06:55:54.547Z,100.00
2022-10-01T06:58:23.483Z,100.00
2022-10-01T07:00:50.491Z,100.00
2022-10-01T07:03:21.767Z,100.00
2022-10-01T07:05:49.393Z,100.00
2022-10-01T07:08:16.272Z,100.00
2022-10-01T07:10:44.055Z,100.00
2022-10-01T07:13:17.611Z,100.00
2022-10-01T07:15:45.514Z,100.00
2022-10-01T07:18:13.152Z,100.00
2022-10-01T07:20:40.614Z,100.00
2022-10-01T07:23:10.471Z,100.00
2022-10-01T07:25:38.810Z,100.00
2022-10-01T07:28:07.896Z,100.00
2022-10-01T07:30:34.826Z,100.00
2022-10-01T07:33:01.297Z,100.00
2022-10-01T07:35:29.573Z,100.00
2022-10-01T07:37:56.021Z,100.00
2022-10-01T07:40:22.776Z,100.00
2022-10-01T07:42:54.698Z,100.00
2022-10-01T07:45:22.797Z,100.00
2022-10-01T07:47:56.517Z,100.00
2022-10-01T07:50:23.503Z,100.00
2022-10-01T07:52:52.434Z,100.00
2022-10-01T07:55:19.783Z,100.00
2022-10-01T07:57:54.042Z,100.00
2022-10-01T08:00:21.594Z,100.00
2022-10-01T08:02:53.529Z,100.00
2022-10-01T08:05:22.763Z,100.00
2022-10-01T08:07:50.036Z,100.00
2022-10-01T08:10:18.791Z,100.00
2022-10-01T08:12:45.702Z,100.00
2022-10-01T08:15:14.924Z,100.00
2022-10-01T08:17:41.814Z,100.00
2022-10-01T08:20:10.586Z,100.00
2022-10-01T08:22:41.641Z,100.00
2022-10-01T08:25:09.659Z,100.00
2022-10-01T08:27:36.681Z,100.00
2022-10-01T08:30:03.940Z,100.00
2022-10-01T08:32:31.122Z,100.00
2022-10-01T08:34:59.998Z,100.00
2022-10-01T08:37:28.492Z,100.00
2022-10-01T08:39:56.356Z,100.00
2022-10-01T08:42:39.486Z,100.00
2022-10-01T08:45:13.194Z,100.00
2022-10-01T08:47:44.654Z,100.00
2022-10-01T08:50:31.930Z,100.00
2022-10-01T08:53:02.843Z,100.00
2022-10-01T08:55:36.287Z,100.00
2022-10-01T08:58:10.293Z,100.00
2022-10-01T09:00:41.947Z,100.00
2022-10-01T09:03:13.021Z,100.00
2022-10-01T09:05:55.407Z,100.00
2022-10-01T09:08:46.172Z,100.00
2022-10-01T09:11:16.880Z,100.00
2022-10-01T09:13:50.535Z,100.00
2022-10-01T09:16:32.218Z,100.00
2022-10-01T09:19:08.099Z,100.00
2022-10-01T09:21:52.815Z,100.00
2022-10-01T09:24:44.425Z,100.00
2022-10-01T09:27:17.408Z,100.00
2022-10-01T09:30:07.308Z,100.00
2022-10-01T09:32:40.401Z,100.00
2022-10-01T09:35:25.624Z,100.00
2022-10-01T09:37:59.982Z,100.00
2022-10-01T09:40:35.593Z,100.00
2022-10-01T09:43:08.119Z,100.00
2022-10-01T09:45:35.473Z,100.00
2022-10-01T09:48:13.988Z,100.00
2022-10-01T09:50:55.323Z,100.00
2022-10-01T09:53:29.483Z,100.00
2022-10-01T09:56:00.283Z,100.00
2022-10-01T09:58:28.971Z,100.00
2022-10-01T10:00:56.494Z,100.00
2022-10-01T10:03:31.412Z,100.00
2022-10-01T10:05:59.878Z,100.00
2022-10-01T10:08:31.088Z,100.00
2022-10-01T10:11:03.047Z,100.00
2022-10-01T10:13:50.850Z,100.00
2022-10-01T10:16:26.385Z,100.00
2022-10-01T10:19:25.787Z,100.00
2022-10-01T10:22:00.602Z,100.00
2022-10-01T10:24:32.526Z,100.00
2022-10-01T10:27:01.027Z,100.00
2022-10-01T10:29:33.307Z,100.00
2022-10-01T10:32:04.788Z,100.00
2022-10-01T10:34:41.213Z,100.00
2022-10-01T10:37:20.756Z,100.00
2022-10-01T10:39:51.136Z,100.00
2022-10-01T10:42:23.003Z,100.00
2022-10-01T10:44:52.824Z,100.00
2022-10-01T10:47:21.491Z,100.00
2022-10-01T10:50:02.430Z,100.00
2022-10-01T10:52:36.097Z,100.00
2022-10-01T10:55:23.206Z,100.00
2022-10-01T10:57:51.545Z,100.00
2022-10-01T11:00:24.057Z,100.00
2022-10-01T11:03:00.006Z,100.00
2022-10-01T11:05:28.952Z,100.00
2022-10-01T11:08:00.723Z,100.00
2022-10-01T11:10:32.767Z,100.00
2022-10-01T11:13:21.569Z,100.00
2022-10-01T11:16:06.263Z,100.00
2022-10-01T11:18:48.086Z,100.00
2022-10-01T11:21:43.335Z,100.00
2022-10-01T11:24:46.031Z,100.00
2022-10-01T11:27:27.226Z,100.00
2022-10-01T11:30:10.097Z,100.00
2022-10-01T11:32:48.995Z,100.00
2022-10-01T11:35:27.506Z,100.00
2022-10-01T11:38:27.304Z,100.00
2022-10-01T11:41:26.001Z,100.00
2022-10-01T11:43:55.370Z,100.00
2022-10-01T11:46:43.330Z,95.90
2022-10-01T11:49:29.156Z,92.82
2022-10-01T11:52:23.561Z,92.12
2022-10-01T11:55:24.340Z,90.56
2022-10-01T11:58:16.399Z,93.29
2022-10-01T12:00:49.357Z,91.59
2022-10-01T12:03:23.457Z,92.74
2022-10-01T12:05:52.064Z,89.73
2022-10-01T12:08:26.080Z,90.83
2022-10-01T12:11:05.564Z,91.85
2022-10-01T12:13:37.707Z,92.75
2022-10-01T12:16:23.658Z,91.43
2022-10-01T12:18:55.769Z,91.71
2022-10-01T12:21:27.301Z,88.59
2022-10-01T12:24:13.724Z,89.78
2022-10-01T12:26:46.190Z,86.43
2022-10-01T12:29:40.073Z,86.00
2022-10-01T12:32:26.783Z,89.48
2022-10-01T12:35:18.099Z,83.83
2022-10-01T12:38:05.033Z,86.64
2022-10-01T12:40:35.554Z,85.82
2022-10-01T12:43:23.747Z,85.63
2022-10-01T12:46:05.573Z,82.31
2022-10-01T12:48:59.600Z,82.80
2022-10-01T12:51:46.188Z,85.71
2022-10-01T12:55:00.987Z,81.56
2022-10-01T12:57:58.901Z,80.47
2022-10-01T13:00:27.333Z,82.17
2022-10-01T13:03:25.865Z,78.77
2022-10-01T13:06:18.167Z,78.63
2022-10-01T13:08:57.649Z,81.06
2022-10-01T13:11:42.041Z,79.49
2022-10-01T13:14:15.957Z,79.90
2022-10-01T13:16:58.146Z,80.15
2022-10-01T13:19:57.548Z,80.66
2022-10-01T13:22:50.779Z,87.21
2022-10-01T13:25:38.142Z,80.78
2022-10-01T13:28:17.594Z,81.51
2022-10-01T13:30:53.510Z,83.27
2022-10-01T13:33:23.791Z,83.98
2022-10-01T13:36:05.211Z,82.75
2022-10-01T13:38:37.929Z,81.77
2022-10-01T13:41:07.505Z,80.39
2022-10-01T13:43:35.422Z,81.02
2022-10-01T13:46:09.098Z,77.80
2022-10-01T13:48:43.878Z,78.17
2022-10-01T13:51:13.228Z,77.17
2022-10-01T13:53:44.895Z,77.97
2022-10-01T13:56:14.531Z,78.10
2022-10-01T13:58:47.189Z,84.07
2022-10-01T14:01:21.399Z,87.19
2022-10-01T14:04:07.050Z,85.13
2022-10-01T14:06:36.858Z,87.96
2022-10-01T14:09:20.751Z,88.92
2022-10-01T14:12:20.220Z,89.41
2022-10-01T14:15:13.445Z,91.78
2022-10-01T14:17:41.899Z,92.29
2022-10-01T14:20:09.128Z,90.77
2022-10-01T14:22:49.948Z,91.38
2022-10-01T14:25:29.142Z,91.64
2022-10-01T14:28:26.516Z,91.49
2022-10-01T14:31:05.085Z,92.02
2022-10-01T14:33:52.716Z,93.68
2022-10-01T14:36:28.413Z,92.23
2022-10-01T14:39:13.140Z,92.17
2022-10-01T14:41:39.664Z,91.40
2022-10-01T14:44:21.698Z,88.86
2022-10-01T14:46:50.238Z,92.41
2022-10-01T14:49:23.177Z,92.87
2022-10-01T14:51:56.507Z,90.97
2022-10-01T14:54:23.763Z,89.86
2022-10-01T14:56:51.338Z,89.41
2022-10-01T14:59:26.200Z,90.76
2022-10-01T15:01:57.982Z,95.69
2022-10-01T15:04:24.665Z,92.85
2022-10-01T15:06:51.597Z,90.51
2022-10-01T15:09:20.452Z,91.42
2022-10-01T15:11:50.053Z,89.60
2022-10-01T15:14:23.919Z,91.35
2022-10-01T15:16:50.985Z,88.65
2022-10-01T15:19:21.006Z,92.20
2022-10-01T15:21:54.262Z,88.31
2022-10-01T15:24:26.043Z,88.33
2022-10-01T15:26:54.440Z,83.32
2022-10-01T15:29:20.977Z,84.16
2022-10-01T15:31:50.375Z,83.55
2022-10-01T15:34:19.671Z,86.21
2022-10-01T15:36:48.455Z,89.44
2022-10-01T15:39:29.937Z,89.16
2022-10-01T15:41:57.566Z,90.59
2022-10-01T15:44:38.433Z,90.37
2022-10-01T15:47:20.553Z,88.66
2022-10-01T15:50:09.482Z,86.90
2022-10-01T15:52:51.783Z,84.65
2022-10-01T15:55:30.848Z,83.38
2022-10-01T15:58:19.948Z,83.93
2022-10-01T16:01:06.614Z,83.22
2022-10-01T16:03:40.607Z,79.28
2022-10-01T16:06:39.236Z,78.55
2022-10-01T16:09:13.958Z,80.38
2022-10-01T16:11:59.944Z,79.38
2022-10-01T16:14:43.745Z,81.32
2022-10-01T16:17:16.365Z,82.97
2022-10-01T16:19:52.125Z,81.46
2022-10-01T16:22:29.574Z,81.70
2022-10-01T16:24:58.677Z,81.82
2022-10-01T16:27:45.072Z,80.40
2022-10-01T16:30:18.780Z,83.00
2022-10-01T16:32:45.403Z,82.60
2022-10-01T16:35:19.989Z,82.72
2022-10-01T16:37:49.577Z,81.85
2022-10-01T16:40:21.566Z,81.59
2022-10-01T16:45:40.319Z,80.56
2022-10-01T16:48:20.009Z,79.63
2022-10-01T16:50:47.252Z,78.82
2022-10-01T16:53:18.183Z,78.02
2022-10-01T16:55:46.148Z,79.22
2022-10-01T16:58:13.501Z,81.36
2022-10-01T17:00:40.062Z,76.43
2022-10-01T17:03:12.126Z,76.07
2022-10-01T17:05:39.185Z,77.15
2022-10-01T17:08:11.277Z,77.31
2022-10-01T17:10:42.936Z,76.46
2022-10-01T17:13:10.175Z,76.25
2022-10-01T17:15:36.657Z,76.67
2022-10-01T17:18:03.294Z,76.44
2022-10-01T17:20:30.870Z,78.48
2022-10-01T17:22:58.658Z,76.27
2022-10-01T17:25:32.190Z,76.51
2022-10-01T17:27:59.855Z,76.86
2022-10-01T17:30:29.067Z,76.83
2022-10-01T17:32:56.977Z,76.70
2022-10-01T17:35:23.773Z,74.92
2022-10-01T17:37:50.248Z,76.94
2022-10-01T17:40:16.858Z,76.39
2022-10-01T17:42:43.510Z,76.70
2022-10-01T17:45:12.678Z,77.84
2022-10-01T17:47:44.346Z,78.11
2022-10-01T17:50:11.057Z,79.41
2022-10-01T17:52:37.809Z,78.02
2022-10-01T17:55:05.324Z,77.98
2022-10-01T17:57:32.249Z,78.83
2022-10-01T17:59:58.786Z,78.68
2022-10-01T18:02:41.918Z,78.24
2022-10-01T18:05:12.151Z,78.93
2022-10-01T18:07:38.991Z,79.23
2022-10-01T18:10:07.814Z,79.43
2022-10-01T18:12:34.400Z,79.67
2022-10-01T18:15:01.711Z,80.55
2022-10-01T18:17:29.203Z,80.35
2022-10-01T18:19:57.030Z,80.38
2022-10-01T18:22:23.848Z,81.04
2022-10-01T18:24:50.451Z,81.64
2022-10-01T18:27:17.009Z,81.76
2022-10-01T18:29:43.561Z,82.44
2022-10-01T18:32:22.850Z,83.52
2022-10-01T18:35:01.085Z,84.26
2022-10-01T18:37:41.025Z,86.05
2022-10-01T18:40:11.250Z,86.23
2022-10-01T18:42:59.759Z,86.30
2022-10-01T18:45:45.220Z,87.39
2022-10-01T18:48:37.921Z,85.06
2022-10-01T18:51:42.555Z,86.32
2022-10-01T18:54:33.638Z,86.32
2022-10-01T18:57:26.068Z,85.76
2022-10-01T19:00:18.539Z,85.50
2022-10-01T19:03:04.264Z,85.66
2022-10-01T19:05:36.633Z,86.84
2022-10-01T19:08:44.236Z,87.85
2022-10-01T19:11:19.685Z,88.72
2022-10-01T19:14:28.838Z,89.49
2022-10-01T19:17:34.512Z,90.46
2022-10-01T19:20:15.631Z,90.72
2022-10-01T19:23:00.876Z,89.51
2022-10-01T19:25:33.467Z,89.27
2022-10-01T19:28:12.214Z,90.11
2022-10-01T19:30:56.796Z,90.28
2022-10-01T19:33:24.401Z,90.29
2022-10-01T19:35:56.712Z,91.12
2022-10-01T19:38:38.045Z,92.54
2022-10-01T19:41:21.916Z,91.72
2022-10-01T19:44:02.457Z,91.85
2022-10-01T19:46:36.971Z,91.50
2022-10-01T19:49:09.695Z,91.58
2022-10-01T19:51:45.003Z,92.49
2022-10-01T19:54:16.840Z,92.98
2022-10-01T19:56:46.945Z,93.88
2022-10-01T19:59:19.656Z,93.75
2022-10-01T20:01:54.053Z,93.54
2022-10-01T20:04:30.268Z,93.82
2022-10-01T20:07:17.249Z,93.78
2022-10-01T20:09:55.053Z,93.35
2022-10-01T20:12:45.715Z,93.62
2022-10-01T20:15:43.144Z,94.45
2022-10-01T20:18:41.970Z,95.12
2022-10-01T20:21:46.182Z,94.36
2022-10-01T20:24:28.868Z,96.00
2022-10-01T20:27:03.936Z,96.07
2022-10-01T20:30:00.908Z,97.14
2022-10-01T20:32:32.307Z,98.78
2022-10-01T20:35:23.677Z,97.79
2022-10-01T20:38:00.323Z,96.09
2022-10-01T20:40:35.765Z,97.55
2022-10-01T20:43:17.942Z,98.67
2022-10-01T20:45:49.948Z,98.35
2022-10-01T20:48:24.116Z,98.71
2022-10-01T20:50:53.933Z,99.39
2022-10-01T20:53:53.034Z,99.01
2022-10-01T20:56:41.493Z,99.00
2022-10-01T20:59:19.177Z,99.31
2022-10-01T21:01:55.050Z,99.46
2022-10-01T21:04:28.916Z,99.68
2022-10-01T21:07:01.904Z,99.18
2022-10-01T21:09:40.760Z,99.58
2022-10-01T21:12:15.160Z,99.75
2022-10-01T21:14:53.721Z,98.99
2022-10-01T21:18:05.315Z,99.37
2022-10-01T21:20:57.535Z,99.76
2022-10-01T21:23:39.546Z,100.00
2022-10-01T21:26:24.599Z,100.00
2022-10-01T21:29:10.004Z,100.00
2022-10-01T21:31:45.817Z,99.31
2022-10-01T21:34:27.747Z,97.26
2022-10-01T21:37:13.350Z,98.55
2022-10-01T21:39:48.160Z,98.36
2022-10-01T21:42:18.781Z,99.75
2022-10-01T21:45:12.406Z,99.60
2022-10-01T21:48:37.790Z,98.72
2022-10-01T21:51:36.669Z,99.08
2022-10-01T21:54:27.439Z,98.68
2022-10-01T21:57:10.288Z,97.97
2022-10-01T22:00:06.350Z,98.69
2022-10-01T22:02:54.560Z,97.91
2022-10-01T22:05:32.461Z,98.81
2022-10-01T22:08:20.528Z,98.57
2022-10-01T22:10:52.094Z,98.86
2022-10-01T22:13:35.699Z,97.97
2022-10-01T22:16:14.321Z,99.04
2022-10-01T22:18:45.961Z,98.77
2022-10-01T22:21:18.167Z,99.01
2022-10-01T22:23:57.831Z,98.21
2022-10-01T22:26:29.991Z,98.64
2022-10-01T22:28:57.088Z,99.17
2022-10-01T22:31:30.362Z,99.33
2022-10-01T22:34:06.079Z,99.61
2022-10-01T22:36:58.552Z,100.00
2022-10-01T22:39:29.040Z,100.00
2022-10-01T22:42:08.581Z,100.00
2022-10-01T22:44:35.156Z,100.00
2022-10-01T22:47:20.272Z,100.00
2022-10-01T22:49:52.850Z,100.00
2022-10-01T22:52:53.768Z,100.00
2022-10-01T22:55:38.780Z,100.00
2022-10-01T22:58:45.597Z,100.00
2022-10-01T23:01:16.298Z,100.00
2022-10-01T23:04:04.325Z,100.00
2022-10-01T23:06:41.458Z,100.00
2022-10-01T23:09:34.644Z,100.00
2022-10-01T23:12:33.231Z,100.00
2022-10-01T23:15:16.730Z,100.00
2022-10-01T23:18:08.839Z,100.00
2022-10-01T23:21:13.572Z,100.00
2022-10-01T23:23:41.439Z,100.00
2022-10-01T23:26:22.779Z,100.00
2022-10-01T23:29:12.408Z,100.00
2022-10-01T23:32:00.585Z,100.00
2022-10-01T23:34:44.761Z,100.00
2022-10-01T23:37:32.940Z,100.00
2022-10-01T23:40:11.114Z,100.00
2022-10-01T23:42:41.466Z,100.00
2022-10-01T23:45:32.429Z,100.00
2022-10-01T23:48:10.310Z,100.00
2022-10-01T23:51:00.134Z,100.00
2022-10-01T23:53:40.414Z,100.00
2022-10-01T23:56:37.937Z,100.00
2022-10-01T23:59:15.088Z,100.00
